Time;durP1;ratioP1;P1;durP2;ratioP2;P2;SDS_P1;SDS_P2;PMS_P1;PMS_P2;Temp;Humidity;BMP_temperature;BMP_pressure;BME280_temperature;BME280_humidity;BME280_pressure;Samples;Min_cycle;Max_cycle;Signal;HPM_P1;HPM_P2
2022/09/09 00:01:51;;;;;;;0.88;0.80;;;;;;;;;;4917290;29;20049;-77
2022/09/09 00:04:23;;;;;;;1.33;0.70;;;;;;;;;;4917414;29;20488;-76
2022/09/09 00:07:08;;;;;;;1.55;0.93;;;;;;;;;;4913406;29;20060;-77
2022/09/09 00:09:51;;;;;;;2.58;1.10;;;;;;;;;;4917206;29;20445;-76
2022/09/09 00:12:21;;;;;;;1.85;1.13;;;;;;;;;;4916982;29;20060;-77
2022/09/09 00:14:54;;;;;;;1.10;0.93;;;;;;;;;;4916765;29;20551;-77
2022/09/09 00:17:46;;;;;;;4.13;1.10;;;;;;;;;;4916802;29;20052;-76
2022/09/09 00:20:15;;;;;;;2.97;1.27;;;;;;;;;;4916132;29;20063;-76
2022/09/09 00:22:53;;;;;;;1.35;1.00;;;;;;;;;;4914140;29;20104;-76
2022/09/09 00:25:34;;;;;;;2.10;0.93;;;;;;;;;;4908966;29;20061;-76
2022/09/09 00:28:00;;;;;;;3.95;1.20;;;;;;;;;;4911162;29;20112;-75
2022/09/09 00:30:31;;;;;;;2.55;1.20;;;;;;;;;;4916581;29;20564;-73
2022/09/09 00:33:02;;;;;;;1.13;1.02;;;;;;;;;;4916821;29;20056;-75
2022/09/09 00:35:37;;;;;;;2.28;1.23;;;;;;;;;;4916897;29;20053;-75
2022/09/09 00:38:23;;;;;;;1.95;1.17;;;;;;;;;;4897959;29;20057;-75
2022/09/09 00:41:01;;;;;;;3.67;1.65;;;;;;;;;;4912497;29;20496;-76
2022/09/09 00:43:30;;;;;;;4.75;1.30;;;;;;;;;;4916699;29;20072;-75
2022/09/09 00:46:11;;;;;;;1.90;1.33;;;;;;;;;;4916315;29;20052;-76
2022/09/09 00:48:43;;;;;;;4.07;1.40;;;;;;;;;;4916646;29;20056;-76
2022/09/09 00:51:15;;;;;;;2.58;1.35;;;;;;;;;;4914594;29;20109;-75
2022/09/09 00:54:03;;;;;;;1.73;1.60;;;;;;;;;;4905425;29;20488;-75
2022/09/09 00:56:45;;;;;;;3.33;1.58;;;;;;;;;;4898624;29;20057;-74
2022/09/09 00:59:11;;;;;;;3.05;1.50;;;;;;;;;;4907220;29;20092;-75
2022/09/09 01:01:39;;;;;;;2.10;1.50;;;;;;;;;;4910603;29;20056;-75
2022/09/09 01:04:10;;;;;;;1.60;1.50;;;;;;;;;;4915669;29;20052;-75
2022/09/09 01:06:38;;;;;;;3.75;1.80;;;;;;;;;;4916377;29;20500;-75
2022/09/09 01:09:16;;;;;;;4.60;1.83;;;;;;;;;;4915936;29;20108;-76
2022/09/09 01:12:00;;;;;;;2.10;1.70;;;;;;;;;;4902727;29;20049;-74
2022/09/09 01:14:33;;;;;;;3.83;1.98;;;;;;;;;;4910166;29;20109;-74
2022/09/09 01:17:02;;;;;;;2.53;1.77;;;;;;;;;;4916160;29;20064;-75
2022/09/09 01:19:52;;;;;;;3.60;2.25;;;;;;;;;;4914063;29;20077;-74
2022/09/09 01:22:25;;;;;;;2.40;1.98;;;;;;;;;;4914960;29;20057;-75
2022/09/09 01:25:09;;;;;;;3.78;1.70;;;;;;;;;;4916013;29;20067;-76
2022/09/09 01:27:36;;;;;;;1.75;1.65;;;;;;;;;;4916074;29;20075;-75
2022/09/09 01:30:08;;;;;;;1.92;1.73;;;;;;;;;;4916397;29;20060;-74
2022/09/09 01:32:42;;;;;;;2.15;1.80;;;;;;;;;;4919103;29;20113;-74
2022/09/09 01:35:11;;;;;;;4.22;1.85;;;;;;;;;;4919044;29;20113;-75
2022/09/09 01:37:37;;;;;;;3.58;2.88;;;;;;;;;;4919712;29;20116;-75
2022/09/09 01:40:04;;;;;;;3.20;1.88;;;;;;;;;;4913487;29;20065;-75
2022/09/09 01:42:30;;;;;;;2.90;2.38;;;;;;;;;;4919135;29;20068;-75
2022/09/09 01:44:56;;;;;;;2.35;1.75;;;;;;;;;;4919208;29;20093;-75
2022/09/09 01:47:23;;;;;;;4.28;1.98;;;;;;;;;;4918731;29;20089;-75
2022/09/09 01:49:49;;;;;;;2.78;2.08;;;;;;;;;;4918512;29;20535;-75
2022/09/09 01:52:15;;;;;;;4.93;2.00;;;;;;;;;;4919082;29;20117;-74
2022/09/09 01:54:41;;;;;;;5.97;2.08;;;;;;;;;;4908337;29;20097;-75
2022/09/09 01:57:08;;;;;;;3.67;2.10;;;;;;;;;;4903927;29;20060;-75
2022/09/09 01:59:43;;;;;;;3.45;2.30;;;;;;;;;;4918675;29;20104;-74
2022/09/09 02:02:26;;;;;;;4.20;2.15;;;;;;;;;;4917379;29;20063;-75
2022/09/09 02:04:55;;;;;;;4.53;2.22;;;;;;;;;;4918887;29;20145;-77
2022/09/09 02:07:36;;;;;;;5.75;2.72;;;;;;;;;;4918961;29;20517;-75
2022/09/09 02:10:16;;;;;;;7.55;2.67;;;;;;;;;;4900133;29;20076;-75
2022/09/09 02:12:45;;;;;;;5.38;2.88;;;;;;;;;;4915344;29;20056;-75
2022/09/09 02:15:18;;;;;;;3.33;2.90;;;;;;;;;;4919097;29;20060;-75
2022/09/09 02:17:46;;;;;;;3.75;2.45;;;;;;;;;;4918772;29;20060;-75
2022/09/09 02:20:14;;;;;;;5.43;3.25;;;;;;;;;;4918581;29;20063;-75
2022/09/09 02:22:43;;;;;;;4.18;2.70;;;;;;;;;;4915578;29;20505;-75
2022/09/09 02:25:10;;;;;;;4.55;2.60;;;;;;;;;;4903612;29;20564;-74
2022/09/09 02:27:36;;;;;;;6.30;3.05;;;;;;;;;;4918045;29;20056;-75
2022/09/09 02:30:03;;;;;;;5.53;3.20;;;;;;;;;;4918756;29;20121;-75
2022/09/09 02:32:32;;;;;;;5.63;3.05;;;;;;;;;;4918267;29;20061;-75
2022/09/09 02:35:03;;;;;;;6.55;3.20;;;;;;;;;;4918534;29;20049;-75
2022/09/09 02:37:35;;;;;;;5.65;3.17;;;;;;;;;;4908917;29;20056;-75
2022/09/09 02:40:02;;;;;;;5.32;3.15;;;;;;;;;;4918268;29;20505;-75
2022/09/09 02:42:29;;;;;;;4.72;2.88;;;;;;;;;;4917622;29;20061;-75
2022/09/09 02:44:55;;;;;;;5.03;2.97;;;;;;;;;;4914556;29;20505;-75
2022/09/09 02:47:29;;;;;;;5.50;3.13;;;;;;;;;;4905938;29;20057;-76
2022/09/09 02:50:02;;;;;;;5.40;3.03;;;;;;;;;;4918258;29;20064;-76
2022/09/09 02:52:48;;;;;;;5.10;3.30;;;;;;;;;;4917704;29;20052;-75
2022/09/09 02:55:18;;;;;;;6.60;3.70;;;;;;;;;;4917983;29;20096;-75
2022/09/09 02:57:46;;;;;;;5.28;3.30;;;;;;;;;;4918538;29;20053;-74
2022/09/09 03:00:16;;;;;;;4.50;2.97;;;;;;;;;;4917855;29;20056;-74
2022/09/09 03:02:42;;;;;;;3.63;2.97;;;;;;;;;;4915498;29;20097;-74
2022/09/09 03:05:08;;;;;;;5.63;3.42;;;;;;;;;;4917739;29;20061;-74
2022/09/09 03:07:35;;;;;;;4.35;3.33;;;;;;;;;;4915991;29;20057;-74
2022/09/09 03:10:01;;;;;;;7.93;3.25;;;;;;;;;;4917464;29;20137;-74
2022/09/09 03:12:27;;;;;;;5.78;3.83;;;;;;;;;;4917447;29;20056;-75
2022/09/09 03:14:53;;;;;;;4.55;3.42;;;;;;;;;;4917819;29;20108;-75
2022/09/09 03:17:20;;;;;;;6.22;3.83;;;;;;;;;;4918077;29;20056;-75
2022/09/09 03:19:49;;;;;;;7.50;4.35;;;;;;;;;;4918273;29;20101;-75
2022/09/09 03:22:15;;;;;;;4.20;3.72;;;;;;;;;;4917669;29;20453;-75
2022/09/09 03:24:41;;;;;;;8.00;3.78;;;;;;;;;;4917735;29;20057;-75
2022/09/09 03:27:08;;;;;;;6.80;4.65;;;;;;;;;;4917910;29;20527;-74
2022/09/09 03:29:34;;;;;;;7.03;3.88;;;;;;;;;;4917851;29;20063;-75
2022/09/09 03:32:00;;;;;;;5.80;4.20;;;;;;;;;;4916543;29;20504;-75
2022/09/09 03:34:27;;;;;;;5.60;4.50;;;;;;;;;;4917419;29;20064;-75
2022/09/09 03:36:53;;;;;;;5.70;4.10;;;;;;;;;;4916170;29;20061;-75
2022/09/09 03:39:19;;;;;;;6.43;3.72;;;;;;;;;;4917305;29;20056;-74
2022/09/09 03:41:48;;;;;;;6.07;4.10;;;;;;;;;;4917932;29;20049;-74
2022/09/09 03:44:14;;;;;;;4.43;3.97;;;;;;;;;;4917243;29;20057;-74
2022/09/09 03:46:40;;;;;;;5.60;3.80;;;;;;;;;;4898575;29;20056;-75
2022/09/09 03:49:06;;;;;;;5.95;3.75;;;;;;;;;;4897475;29;20113;-74
2022/09/09 03:51:36;;;;;;;4.82;4.20;;;;;;;;;;4916241;29;20053;-74
2022/09/09 03:54:04;;;;;;;6.70;3.58;;;;;;;;;;4916647;29;20060;-75
2022/09/09 03:56:31;;;;;;;5.10;4.13;;;;;;;;;;4917201;29;20067;-75
2022/09/09 03:58:57;;;;;;;5.25;4.05;;;;;;;;;;4902168;29;20093;-74
2022/09/09 04:01:24;;;;;;;4.80;4.40;;;;;;;;;;4917106;29;20207;-74
2022/09/09 04:03:50;;;;;;;5.03;4.53;;;;;;;;;;4917770;29;20063;-74
2022/09/09 04:06:17;;;;;;;6.45;4.60;;;;;;;;;;4916602;29;20109;-74
2022/09/09 04:08:44;;;;;;;8.35;5.07;;;;;;;;;;4917104;29;20056;-74
2022/09/09 04:11:11;;;;;;;6.32;3.67;;;;;;;;;;4916757;29;20063;-73
2022/09/09 04:13:38;;;;;;;9.45;5.28;;;;;;;;;;4917004;29;20060;-73
2022/09/09 04:16:05;;;;;;;4.38;3.97;;;;;;;;;;4916870;29;20097;-74
2022/09/09 04:18:34;;;;;;;7.22;4.60;;;;;;;;;;4901587;29;20428;-73
2022/09/09 04:21:01;;;;;;;7.25;5.00;;;;;;;;;;4916788;29;20117;-74
2022/09/09 04:23:31;;;;;;;6.72;5.28;;;;;;;;;;4916213;29;20061;-75
2022/09/09 04:25:58;;;;;;;4.53;4.13;;;;;;;;;;4916455;29;20057;-74
2022/09/09 04:28:26;;;;;;;7.32;4.45;;;;;;;;;;4910921;29;20501;-72
2022/09/09 04:30:52;;;;;;;4.03;3.63;;;;;;;;;;4916505;29;20056;-74
2022/09/09 04:33:19;;;;;;;8.23;4.70;;;;;;;;;;4909414;29;20056;-75
2022/09/09 04:35:47;;;;;;;5.18;4.55;;;;;;;;;;4915202;29;20064;-74
2022/09/09 04:38:14;;;;;;;7.43;4.55;;;;;;;;;;4916198;29;20081;-75
2022/09/09 04:40:47;;;;;;;4.68;3.85;;;;;;;;;;4916149;29;20049;-75
2022/09/09 04:43:14;;;;;;;8.07;4.38;;;;;;;;;;4916128;29;20559;-74
2022/09/09 04:45:41;;;;;;;5.60;4.28;;;;;;;;;;4916408;29;20145;-74
2022/09/09 04:48:09;;;;;;;5.07;3.90;;;;;;;;;;4916103;29;20159;-75
2022/09/09 04:50:35;;;;;;;7.03;4.07;;;;;;;;;;4916039;29;20518;-75
2022/09/09 04:53:03;;;;;;;5.20;3.72;;;;;;;;;;4916118;29;20049;-73
2022/09/09 04:55:30;;;;;;;4.30;3.83;;;;;;;;;;4916220;29;20064;-73
2022/09/09 04:57:57;;;;;;;5.63;3.90;;;;;;;;;;4916087;29;20112;-73
2022/09/09 05:00:24;;;;;;;7.38;4.18;;;;;;;;;;4915679;29;20064;-73
2022/09/09 05:02:51;;;;;;;5.57;3.58;;;;;;;;;;4915729;29;20572;-72
2022/09/09 05:05:18;;;;;;;9.25;4.65;;;;;;;;;;4914928;29;20108;-74
2022/09/09 05:07:44;;;;;;;6.93;3.72;;;;;;;;;;4914269;29;20104;-73
2022/09/09 05:10:11;;;;;;;7.50;3.80;;;;;;;;;;4915810;29;20056;-73
2022/09/09 05:12:37;;;;;;;6.70;3.50;;;;;;;;;;4915451;29;20481;-74
2022/09/09 05:15:04;;;;;;;7.30;3.42;;;;;;;;;;4915484;29;20500;-73
2022/09/09 05:17:30;;;;;;;4.47;3.95;;;;;;;;;;4916236;29;20556;-74
2022/09/09 05:19:56;;;;;;;4.72;3.42;;;;;;;;;;4915944;29;20052;-73
2022/09/09 05:22:26;;;;;;;10.85;3.70;;;;;;;;;;4914910;29;20057;-75
2022/09/09 05:24:52;;;;;;;5.10;2.80;;;;;;;;;;4913573;29;20053;-73
2022/09/09 05:27:19;;;;;;;7.15;3.72;;;;;;;;;;4915795;29;20052;-74
2022/09/09 05:29:46;;;;;;;6.60;3.53;;;;;;;;;;4916181;29;20067;-73
2022/09/09 05:32:14;;;;;;;6.20;3.22;;;;;;;;;;4915784;29;20120;-77
2022/09/09 05:34:41;;;;;;;6.32;3.35;;;;;;;;;;4915609;29;20116;-72
2022/09/09 05:37:07;;;;;;;7.13;3.10;;;;;;;;;;4915382;29;20052;-73
2022/09/09 05:39:36;;;;;;;9.32;3.22;;;;;;;;;;4915369;29;20517;-72
2022/09/09 05:42:04;;;;;;;5.57;3.55;;;;;;;;;;4903857;29;20052;-72
2022/09/09 05:44:31;;;;;;;6.45;3.03;;;;;;;;;;4910389;29;20088;-73
2022/09/09 05:46:57;;;;;;;12.40;3.20;;;;;;;;;;4915498;29;20108;-73
2022/09/09 05:49:24;;;;;;;4.45;3.35;;;;;;;;;;4915965;29;20061;-74
2022/09/09 05:51:50;;;;;;;6.28;3.15;;;;;;;;;;4915044;29;20060;-74
2022/09/09 05:54:17;;;;;;;8.85;3.80;;;;;;;;;;4915129;29;20087;-72
2022/09/09 05:56:43;;;;;;;8.15;3.30;;;;;;;;;;4914375;29;20060;-72
2022/09/09 05:59:15;;;;;;;5.93;3.53;;;;;;;;;;4896705;29;20073;-73
2022/09/09 06:01:42;;;;;;;7.80;3.47;;;;;;;;;;4914037;29;20056;-73
2022/09/09 06:04:08;;;;;;;8.90;3.53;;;;;;;;;;4915203;29;20088;-73
2022/09/09 06:06:36;;;;;;;5.38;3.33;;;;;;;;;;4915744;29;20573;-73
2022/09/09 06:09:06;;;;;;;9.55;3.25;;;;;;;;;;4915514;29;20060;-73
2022/09/09 06:11:35;;;;;;;6.28;3.40;;;;;;;;;;4914722;29;20056;-74
2022/09/09 06:14:02;;;;;;;5.82;3.63;;;;;;;;;;4915308;29;20117;-74
2022/09/09 06:16:29;;;;;;;11.02;3.63;;;;;;;;;;4914150;29;20120;-73
2022/09/09 06:18:56;;;;;;;7.38;3.50;;;;;;;;;;4917524;29;20131;-74
2022/09/09 06:21:24;;;;;;;8.45;3.47;;;;;;;;;;4913478;29;20511;-73
2022/09/09 06:23:53;;;;;;;5.53;2.97;;;;;;;;;;4917083;29;20068;-74
2022/09/09 06:26:25;;;;;;;;;;;;;;;;;;4918837;29;20064;-74
2022/09/09 06:28:53;;;;;;;8.65;3.58;;;;;;;;;;4905268;29;41945;-74
2022/09/09 06:31:24;;;;;;;5.45;2.83;;;;;;;;;;4916230;29;20116;-73
2022/09/09 06:33:56;;;;;;;;;;;;;;;;;;4906531;29;20108;-73
2022/09/09 06:36:24;;;;;;;9.93;3.28;;;;;;;;;;4912101;29;46837;-73
2022/09/09 06:38:50;;;;;;;9.88;3.80;;;;;;;;;;4920138;29;20056;-73
2022/09/09 06:41:18;;;;;;;6.80;3.33;;;;;;;;;;4917509;29;20603;-73
2022/09/09 06:43:45;;;;;;;8.25;3.00;;;;;;;;;;4917813;29;20132;-75
2022/09/09 06:46:19;;;;;;;11.82;2.88;;;;;;;;;;4918424;29;20588;-73
2022/09/09 06:48:46;;;;;;;7.40;3.23;;;;;;;;;;4905449;29;20144;-74
2022/09/09 06:51:13;;;;;;;5.18;3.28;;;;;;;;;;4918101;29;20137;-73
2022/09/09 06:53:41;;;;;;;9.30;3.40;;;;;;;;;;4917373;29;20117;-74
2022/09/09 06:56:11;;;;;;;6.13;2.60;;;;;;;;;;4918615;29;20056;-73
2022/09/09 06:58:43;;;;;;;4.85;2.58;;;;;;;;;;4917844;29;20057;-73
2022/09/09 07:01:12;;;;;;;6.85;2.47;;;;;;;;;;4903198;29;20418;-73
2022/09/09 07:03:42;;;;;;;8.15;2.55;;;;;;;;;;4917070;29;20056;-73
2022/09/09 07:06:13;;;;;;;10.05;2.72;;;;;;;;;;4917000;29;20525;-73
2022/09/09 07:08:39;;;;;;;7.05;2.40;;;;;;;;;;4915983;29;20064;-73
2022/09/09 07:11:06;;;;;;;8.70;2.63;;;;;;;;;;4917383;29;20112;-71
2022/09/09 07:13:37;;;;;;;6.57;2.42;;;;;;;;;;4917546;29;20068;-72
2022/09/09 07:16:11;;;;;;;8.25;2.97;;;;;;;;;;4917143;29;20079;-72
2022/09/09 07:18:37;;;;;;;7.05;2.90;;;;;;;;;;4917398;29;20583;-72
2022/09/09 07:21:03;;;;;;;11.88;2.75;;;;;;;;;;4917260;29;20079;-72
2022/09/09 07:23:30;;;;;;;3.97;2.47;;;;;;;;;;4911017;29;20485;-72
2022/09/09 07:26:02;;;;;;;5.25;2.53;;;;;;;;;;4911726;29;20060;-71
2022/09/09 07:28:30;;;;;;;8.60;2.53;;;;;;;;;;4915642;29;20061;-73
2022/09/09 07:30:58;;;;;;;9.90;3.00;;;;;;;;;;4917216;29;20080;-72
2022/09/09 07:33:25;;;;;;;8.18;2.90;;;;;;;;;;4916047;29;20052;-71
2022/09/09 07:35:51;;;;;;;6.35;2.50;;;;;;;;;;4916268;29;20079;-71
2022/09/09 07:38:19;;;;;;;8.00;2.42;;;;;;;;;;4916879;29;20543;-73
2022/09/09 07:40:46;;;;;;;8.98;2.50;;;;;;;;;;4917346;29;20044;-72
2022/09/09 07:43:12;;;;;;;6.25;2.38;;;;;;;;;;4913809;29;20053;-72
2022/09/09 07:45:42;;;;;;;6.00;2.30;;;;;;;;;;4914828;29;20056;-72
2022/09/09 07:48:08;;;;;;;11.30;2.78;;;;;;;;;;4915222;29;20066;-72
2022/09/09 07:50:35;;;;;;;8.60;2.17;;;;;;;;;;4917552;29;20092;-71
2022/09/09 07:53:02;;;;;;;6.63;2.50;;;;;;;;;;4916748;29;20053;-72
2022/09/09 07:55:28;;;;;;;10.10;3.03;;;;;;;;;;4914801;29;20053;-73
2022/09/09 07:57:55;;;;;;;5.28;2.33;;;;;;;;;;4904497;29;20056;-72
2022/09/09 08:00:22;;;;;;;8.27;2.28;;;;;;;;;;4908124;29;20060;-71
2022/09/09 08:02:48;;;;;;;9.90;2.35;;;;;;;;;;4907471;29;20084;-73
2022/09/09 08:05:15;;;;;;;7.13;2.42;;;;;;;;;;4916195;29;20053;-72
2022/09/09 08:07:41;;;;;;;8.60;3.20;;;;;;;;;;4907478;29;20497;-72
2022/09/09 08:10:08;;;;;;;9.38;2.67;;;;;;;;;;4913707;29;20056;-72
2022/09/09 08:12:35;;;;;;;7.60;2.40;;;;;;;;;;4916344;29;20063;-72
2022/09/09 08:15:01;;;;;;;6.03;2.17;;;;;;;;;;4916157;29;20575;-73
2022/09/09 08:17:28;;;;;;;8.98;2.72;;;;;;;;;;4915196;29;20112;-73
2022/09/09 08:19:54;;;;;;;4.43;2.08;;;;;;;;;;4915980;29;20060;-73
2022/09/09 08:22:21;;;;;;;6.32;2.28;;;;;;;;;;4916625;29;20068;-73
2022/09/09 08:24:48;;;;;;;9.18;2.22;;;;;;;;;;4915084;29;20485;-72
2022/09/09 08:27:14;;;;;;;6.20;2.22;;;;;;;;;;4915135;29;20093;-71
2022/09/09 08:29:40;;;;;;;7.40;2.22;;;;;;;;;;4915954;29;20056;-71
2022/09/09 08:32:07;;;;;;;9.60;1.90;;;;;;;;;;4915677;29;20064;-71
2022/09/09 08:34:33;;;;;;;4.90;2.55;;;;;;;;;;4916714;29;20108;-71
2022/09/09 08:37:00;;;;;;;10.30;3.08;;;;;;;;;;4915291;29;20160;-71
2022/09/09 08:39:26;;;;;;;9.25;2.30;;;;;;;;;;4914214;29;20057;-71
2022/09/09 08:42:00;;;;;;;8.95;2.00;;;;;;;;;;4911464;29;20065;-72
2022/09/09 08:44:31;;;;;;;4.68;1.63;;;;;;;;;;4908068;29;20076;-71
2022/09/09 08:47:19;;;;;;;7.60;2.30;;;;;;;;;;4915392;29;20096;-72
2022/09/09 08:50:05;;;;;;;7.28;2.15;;;;;;;;;;4916131;29;20489;-72
2022/09/09 08:52:37;;;;;;;7.82;2.60;;;;;;;;;;4902115;29;20056;-72
2022/09/09 08:55:10;;;;;;;9.32;2.30;;;;;;;;;;4915019;29;20090;-70
2022/09/09 08:57:36;;;;;;;9.25;2.15;;;;;;;;;;4914983;29;20063;-71
2022/09/09 09:00:03;;;;;;;7.82;2.05;;;;;;;;;;4915534;29;20187;-72
2022/09/09 09:02:29;;;;;;;8.45;2.20;;;;;;;;;;4916428;29;20056;-72
2022/09/09 09:05:09;;;;;;;8.35;2.60;;;;;;;;;;4916426;29;20108;-73
2022/09/09 09:07:55;;;;;;;4.82;1.90;;;;;;;;;;4916625;29;20056;-73
2022/09/09 09:10:30;;;;;;;6.70;2.20;;;;;;;;;;4915855;29;20056;-73
2022/09/09 09:13:13;;;;;;;8.20;2.42;;;;;;;;;;4910478;29;20057;-72
2022/09/09 09:15:41;;;;;;;6.70;2.10;;;;;;;;;;4915677;29;20109;-71
2022/09/09 09:18:12;;;;;;;5.40;2.50;;;;;;;;;;4922132;29;20575;-72
2022/09/09 09:20:51;;;;;;;7.07;2.67;;;;;;;;;;4921210;28;20049;-72
2022/09/09 09:23:22;;;;;;;8.43;2.20;;;;;;;;;;4914106;29;20476;-73
2022/09/09 09:25:51;;;;;;;11.20;2.58;;;;;;;;;;4916011;29;20052;-73
2022/09/09 09:28:21;;;;;;;4.18;1.85;;;;;;;;;;4896817;29;20056;-71
2022/09/09 09:31:03;;;;;;;5.82;2.22;;;;;;;;;;4909887;29;20065;-72
2022/09/09 09:33:33;;;;;;;9.70;2.42;;;;;;;;;;4903935;29;20061;-71
2022/09/09 09:36:01;;;;;;;6.90;1.95;;;;;;;;;;4915222;29;20565;-72
2022/09/09 09:38:28;;;;;;;8.02;2.88;;;;;;;;;;4915889;29;20065;-72
2022/09/09 09:41:15;;;;;;;9.15;2.22;;;;;;;;;;4912496;29;20113;-68
2022/09/09 09:43:44;;;;;;;8.70;2.47;;;;;;;;;;4910354;29;20061;-71
2022/09/09 09:46:19;;;;;;;8.40;2.42;;;;;;;;;;4901317;29;20052;-73
2022/09/09 09:48:46;;;;;;;;;;;;;;;;;;4912560;29;20053;-71
2022/09/09 09:51:15;;;;;;;6.50;1.95;;;;;;;;;;4909583;29;44373;-72
2022/09/09 09:53:42;;;;;;;15.48;2.60;;;;;;;;;;4917130;29;20068;-72
2022/09/09 09:56:10;;;;;;;7.10;2.20;;;;;;;;;;4918462;29;20497;-73
2022/09/09 09:58:56;;;;;;;6.72;2.60;;;;;;;;;;4918868;29;20061;-72
2022/09/09 10:01:24;;;;;;;8.10;2.28;;;;;;;;;;4918596;29;20120;-72
2022/09/09 10:03:52;;;;;;;8.25;2.97;;;;;;;;;;4914996;29;20053;-71
2022/09/09 10:06:38;;;;;;;8.63;2.80;;;;;;;;;;4918794;29;20065;-71
2022/09/09 10:09:07;;;;;;;;;;;;;;;;;;4900274;29;20109;-72
2022/09/09 10:11:33;;;;;;;7.30;2.45;;;;;;;;;;4916248;29;45030;-72
2022/09/09 10:14:14;;;;;;;8.55;2.53;;;;;;;;;;4917491;29;20108;-72
2022/09/09 10:16:44;;;;;;;9.13;2.80;;;;;;;;;;4902301;29;20101;-72
2022/09/09 10:19:15;;;;;;;8.90;2.10;;;;;;;;;;4918386;29;20056;-72
2022/09/09 10:22:00;;;;;;;5.57;2.17;;;;;;;;;;4913814;29;20057;-72
2022/09/09 10:24:32;;;;;;;9.80;2.10;;;;;;;;;;4914936;29;20061;-72
2022/09/09 10:27:05;;;;;;;8.35;2.40;;;;;;;;;;4917951;29;20060;-72
2022/09/09 10:29:37;;;;;;;8.13;2.53;;;;;;;;;;4918642;29;20063;-72
2022/09/09 10:32:09;;;;;;;12.30;3.22;;;;;;;;;;4917872;29;20063;-72
2022/09/09 10:34:52;;;;;;;7.85;2.50;;;;;;;;;;4918099;29;20524;-71
2022/09/09 10:37:25;;;;;;;11.73;2.67;;;;;;;;;;4917994;29;20398;-70
2022/09/09 10:39:57;;;;;;;7.65;2.05;;;;;;;;;;4916409;29;20514;-72
2022/09/09 10:42:28;;;;;;;9.05;2.17;;;;;;;;;;4916823;29;20069;-71
2022/09/09 10:45:13;;;;;;;5.55;2.55;;;;;;;;;;4917674;29;20563;-71
2022/09/09 10:47:39;;;;;;;9.65;2.28;;;;;;;;;;4917784;29;20068;-71
2022/09/09 10:50:12;;;;;;;6.65;2.58;;;;;;;;;;4916842;29;20108;-73
2022/09/09 10:52:57;;;;;;;11.40;2.50;;;;;;;;;;4917474;29;20578;-72
2022/09/09 10:55:25;;;;;;;4.85;3.28;;;;;;;;;;4912245;29;20496;-72
2022/09/09 10:57:57;;;;;;;12.77;3.42;;;;;;;;;;4917735;29;20060;-72
2022/09/09 11:00:25;;;;;;;3.42;1.80;;;;;;;;;;4900681;29;20561;-72
2022/09/09 11:03:00;;;;;;;7.82;2.40;;;;;;;;;;4917115;29;20057;-71
2022/09/09 11:05:29;;;;;;;5.35;2.00;;;;;;;;;;4916922;29;20576;-72
2022/09/09 11:08:01;;;;;;;4.50;1.88;;;;;;;;;;4915632;29;20064;-72
2022/09/09 11:10:34;;;;;;;4.78;2.10;;;;;;;;;;4917811;29;20056;-73
2022/09/09 11:13:03;;;;;;;7.32;3.08;;;;;;;;;;4917545;29;20063;-71
2022/09/09 11:15:35;;;;;;;10.30;2.15;;;;;;;;;;4914490;29;20573;-72
2022/09/09 11:18:04;;;;;;;2.50;1.92;;;;;;;;;;4916038;29;20112;-72
2022/09/09 11:20:32;;;;;;;9.07;2.67;;;;;;;;;;4904527;29;20056;-72
2022/09/09 11:23:04;;;;;;;4.50;1.85;;;;;;;;;;4913552;29;20065;-72
2022/09/09 11:25:38;;;;;;;7.68;2.25;;;;;;;;;;4909776;29;20056;-72
2022/09/09 11:28:23;;;;;;;4.97;2.38;;;;;;;;;;4916760;29;20109;-71
2022/09/09 11:30:52;;;;;;;9.80;2.93;;;;;;;;;;4915386;29;20104;-73
2022/09/09 11:33:41;;;;;;;6.82;2.15;;;;;;;;;;4900254;29;20087;-72
2022/09/09 11:36:35;;;;;;;3.92;2.40;;;;;;;;;;4916836;29;20060;-71
2022/09/09 11:39:04;;;;;;;8.63;3.15;;;;;;;;;;4910487;29;20523;-71
2022/09/09 11:41:36;;;;;;;7.47;2.08;;;;;;;;;;4906897;29;20062;-71
2022/09/09 11:44:10;;;;;;;3.78;1.80;;;;;;;;;;4916922;29;20060;-71
2022/09/09 11:46:38;;;;;;;8.07;2.10;;;;;;;;;;4917368;29;20101;-71
2022/09/09 11:49:05;;;;;;;7.25;1.77;;;;;;;;;;4912254;29;20068;-72
2022/09/09 11:51:33;;;;;;;4.20;1.70;;;;;;;;;;4912173;29;20472;-70
2022/09/09 11:54:04;;;;;;;3.85;1.70;;;;;;;;;;4919104;29;20539;-70
2022/09/09 11:56:32;;;;;;;5.57;2.10;;;;;;;;;;4917726;28;20064;-70
2022/09/09 11:59:03;;;;;;;9.25;2.15;;;;;;;;;;4913473;29;20053;-70
2022/09/09 12:01:30;;;;;;;4.80;2.85;;;;;;;;;;4911663;29;20057;-70
2022/09/09 12:04:08;;;;;;;4.60;1.92;;;;;;;;;;4916604;29;20061;-69
2022/09/09 12:06:55;;;;;;;6.38;2.38;;;;;;;;;;4916783;29;20057;-71
2022/09/09 12:09:30;;;;;;;10.38;2.70;;;;;;;;;;4917192;29;20052;-71
2022/09/09 12:12:12;;;;;;;4.55;2.40;;;;;;;;;;4915396;29;20497;-71
2022/09/09 12:14:45;;;;;;;8.05;2.22;;;;;;;;;;4909039;29;20112;-71
2022/09/09 12:17:22;;;;;;;8.02;2.83;;;;;;;;;;4910012;29;21108;-70
2022/09/09 12:20:03;;;;;;;7.40;2.28;;;;;;;;;;4911341;29;20056;-70
2022/09/09 12:22:38;;;;;;;4.60;2.10;;;;;;;;;;4915400;29;21011;-70
2022/09/09 12:25:07;;;;;;;4.78;2.47;;;;;;;;;;4914814;29;20476;-70
2022/09/09 12:27:36;;;;;;;5.20;2.20;;;;;;;;;;4929811;29;20135;-70
2022/09/09 12:30:09;;;;;;;8.20;1.98;;;;;;;;;;4919013;29;20088;-69
2022/09/09 12:32:37;;;;;;;4.80;2.55;;;;;;;;;;4916181;29;20060;-70
2022/09/09 12:35:11;;;;;;;5.78;2.13;;;;;;;;;;4915735;29;20060;-70
2022/09/09 12:37:39;;;;;;;4.72;2.10;;;;;;;;;;4906527;29;20513;-70
2022/09/09 12:40:18;;;;;;;6.38;2.35;;;;;;;;;;4916026;29;20153;-70
2022/09/09 12:42:44;;;;;;;5.25;2.25;;;;;;;;;;4921490;28;20115;-71
2022/09/09 12:45:27;;;;;;;5.38;2.20;;;;;;;;;;4914126;29;21015;-72
2022/09/09 12:48:07;;;;;;;2.20;2.00;;;;;;;;;;4904374;29;20052;-72
2022/09/09 12:50:35;;;;;;;4.20;2.10;;;;;;;;;;4913953;29;20060;-72
2022/09/09 12:53:06;;;;;;;10.60;3.42;;;;;;;;;;4910387;29;20115;-73
2022/09/09 12:55:35;;;;;;;7.00;2.50;;;;;;;;;;4913554;29;20065;-73
2022/09/09 12:58:05;;;;;;;5.07;2.30;;;;;;;;;;4915422;29;20112;-71
2022/09/09 13:00:32;;;;;;;5.85;2.08;;;;;;;;;;4903554;29;20057;-72
2022/09/09 13:03:00;;;;;;;7.80;3.15;;;;;;;;;;4913568;29;20060;-73
2022/09/09 13:05:41;;;;;;;6.80;2.42;;;;;;;;;;4916032;29;20066;-72
2022/09/09 13:08:10;;;;;;;6.80;2.95;;;;;;;;;;4896859;29;20505;-73
2022/09/09 13:10:56;;;;;;;6.95;2.83;;;;;;;;;;4912018;29;20060;-73
2022/09/09 13:13:29;;;;;;;7.23;2.50;;;;;;;;;;4914755;29;20062;-73
2022/09/09 13:15:57;;;;;;;3.30;2.03;;;;;;;;;;4915687;29;20087;-73
2022/09/09 13:18:24;;;;;;;4.28;2.05;;;;;;;;;;4902879;29;20056;-72
2022/09/09 13:20:51;;;;;;;9.52;2.70;;;;;;;;;;4915604;29;20509;-72
2022/09/09 13:23:19;;;;;;;4.65;2.00;;;;;;;;;;4913678;29;20116;-73
2022/09/09 13:25:56;;;;;;;5.05;2.10;;;;;;;;;;4909316;29;20501;-71
2022/09/09 13:28:24;;;;;;;4.78;1.60;;;;;;;;;;4905348;29;20049;-72
2022/09/09 13:30:58;;;;;;;6.40;1.65;;;;;;;;;;4917767;29;20057;-73
2022/09/09 13:33:30;;;;;;;6.97;2.00;;;;;;;;;;4918936;29;20063;-73
2022/09/09 13:35:57;;;;;;;7.55;2.20;;;;;;;;;;4918227;29;20060;-73
2022/09/09 13:38:25;;;;;;;3.13;1.90;;;;;;;;;;4918379;29;20064;-72
2022/09/09 13:40:57;;;;;;;2.83;1.70;;;;;;;;;;4907811;29;20551;-72
2022/09/09 13:43:24;;;;;;;4.15;2.13;;;;;;;;;;4917314;29;20057;-71
2022/09/09 13:46:09;;;;;;;5.57;2.28;;;;;;;;;;4919070;29;20057;-73
2022/09/09 13:48:37;;;;;;;7.10;2.33;;;;;;;;;;4906059;29;20061;-71
2022/09/09 13:51:07;;;;;;;5.43;2.50;;;;;;;;;;4905723;29;20068;-71
2022/09/09 13:53:33;;;;;;;4.93;2.15;;;;;;;;;;4912156;29;20059;-72
2022/09/09 13:56:01;;;;;;;5.10;2.35;;;;;;;;;;4910711;29;20059;-71
2022/09/09 13:58:27;;;;;;;6.57;2.53;;;;;;;;;;4914890;29;20520;-72
2022/09/09 14:00:53;;;;;;;8.68;2.40;;;;;;;;;;4911345;29;20124;-73
2022/09/09 14:03:20;;;;;;;3.05;1.80;;;;;;;;;;4917621;29;20564;-74
2022/09/09 14:05:47;;;;;;;5.93;2.70;;;;;;;;;;4913238;29;20493;-73
2022/09/09 14:08:16;;;;;;;5.07;2.55;;;;;;;;;;4917991;29;20057;-72
2022/09/09 14:10:42;;;;;;;5.70;2.53;;;;;;;;;;4909153;29;20112;-73
2022/09/09 14:13:08;;;;;;;6.03;2.40;;;;;;;;;;4913016;29;20065;-73
2022/09/09 14:15:34;;;;;;;4.45;2.00;;;;;;;;;;4918231;29;20505;-72
2022/09/09 14:18:01;;;;;;;4.22;2.15;;;;;;;;;;4914588;29;20079;-72
2022/09/09 14:20:29;;;;;;;5.85;2.15;;;;;;;;;;4917820;29;20099;-73
2022/09/09 14:22:57;;;;;;;5.25;2.65;;;;;;;;;;4917402;29;20430;-71
2022/09/09 14:25:28;;;;;;;7.40;2.55;;;;;;;;;;4916462;29;20056;-72
2022/09/09 14:27:56;;;;;;;4.60;2.17;;;;;;;;;;4915812;29;20428;-72
2022/09/09 14:30:22;;;;;;;6.53;2.20;;;;;;;;;;4917483;29;20056;-77
2022/09/09 14:32:48;;;;;;;6.85;2.20;;;;;;;;;;4918201;29;20056;-72
2022/09/09 14:35:17;;;;;;;7.75;2.30;;;;;;;;;;4917457;29;20060;-73
2022/09/09 14:37:44;;;;;;;4.20;1.85;;;;;;;;;;4915081;29;20052;-72
2022/09/09 14:40:11;;;;;;;7.82;2.72;;;;;;;;;;4904554;29;20108;-72
2022/09/09 14:42:37;;;;;;;5.32;2.20;;;;;;;;;;4916382;29;20073;-71
2022/09/09 14:45:04;;;;;;;3.88;2.22;;;;;;;;;;4906383;29;20105;-72
2022/09/09 14:47:30;;;;;;;5.90;2.75;;;;;;;;;;4917706;29;20068;-71
2022/09/09 14:49:56;;;;;;;7.30;2.80;;;;;;;;;;4911293;29;20067;-71
2022/09/09 14:52:22;;;;;;;5.68;2.65;;;;;;;;;;4914781;29;20501;-71
2022/09/09 14:54:49;;;;;;;5.13;2.88;;;;;;;;;;4907884;29;20110;-71
2022/09/09 14:57:15;;;;;;;4.68;2.70;;;;;;;;;;4907621;29;20064;-71
2022/09/09 14:59:41;;;;;;;7.78;3.22;;;;;;;;;;4916885;29;20060;-71
2022/09/09 15:49:27;;;;;;;13.40;7.97;;;;;;;;;;6197978;22;1237492;-70